createdAt,value
2023-01-09T00:00:52.216Z,7.35
2023-01-09T00:03:19.156Z,6.65
2023-01-09T00:05:46.119Z,7.32
2023-01-09T00:08:12.836Z,5.68
2023-01-09T00:10:39.686Z,6.60
2023-01-09T00:13:06.674Z,7.50
2023-01-09T00:15:33.431Z,8.93
2023-01-09T00:18:00.399Z,6.65
2023-01-09T00:20:27.171Z,6.70
2023-01-09T00:22:53.796Z,7.03
2023-01-09T00:25:22.807Z,5.85
2023-01-09T00:27:49.511Z,6.28
2023-01-09T00:30:16.199Z,6.22
2023-01-09T00:32:42.965Z,6.60
2023-01-09T00:35:15.128Z,6.20
2023-01-09T00:37:41.773Z,6.18
2023-01-09T00:40:10.863Z,6.32
2023-01-09T00:42:37.937Z,6.57
2023-01-09T00:45:11.191Z,6.97
2023-01-09T00:47:43.114Z,6.60
2023-01-09T00:50:21.767Z,7.55
2023-01-09T00:52:49.878Z,7.70
2023-01-09T00:55:17.367Z,7.28
2023-01-09T00:57:44.257Z,6.70
2023-01-09T01:00:11.722Z,6.63
2023-01-09T01:02:38.649Z,7.65
2023-01-09T01:05:25.310Z,8.40
2023-01-09T01:07:51.963Z,7.53
2023-01-09T01:10:23.540Z,7.85
2023-01-09T01:12:51.471Z,7.75
2023-01-09T01:15:20.114Z,7.55
2023-01-09T01:17:47.099Z,9.25
2023-01-09T01:20:18.742Z,7.43
2023-01-09T01:22:45.998Z,7.57
2023-01-09T01:25:15.193Z,7.55
2023-01-09T01:27:42.100Z,10.73
2023-01-09T01:30:11.688Z,8.82
2023-01-09T01:32:38.396Z,8.55
2023-01-09T01:35:06.798Z,8.65
2023-01-09T01:37:34.660Z,10.05
2023-01-09T01:40:01.960Z,7.30
2023-01-09T01:42:28.754Z,8.43
2023-01-09T01:45:08.658Z,8.88
2023-01-09T01:48:02.047Z,10.38
2023-01-09T01:50:31.919Z,8.50
2023-01-09T01:53:21.725Z,8.70
2023-01-09T01:56:10.616Z,10.23
2023-01-09T01:58:52.265Z,8.65
2023-01-09T02:01:20.732Z,8.10
2023-01-09T02:03:48.455Z,8.63
2023-01-09T02:06:15.530Z,10.02
2023-01-09T02:08:42.676Z,7.63
2023-01-09T02:11:09.803Z,8.98
2023-01-09T02:13:38.824Z,8.30
2023-01-09T02:16:27.467Z,7.45
2023-01-09T02:19:35.754Z,7.25
2023-01-09T02:22:30.291Z,7.63
2023-01-09T02:25:12.392Z,7.80
2023-01-09T02:27:59.491Z,8.75
2023-01-09T02:30:55.319Z,7.15
2023-01-09T02:33:29.505Z,9.15
2023-01-09T02:36:10.869Z,8.45
2023-01-09T02:38:49.655Z,9.18
2023-01-09T02:41:39.340Z,10.68
2023-01-09T02:44:22.325Z,9.15
2023-01-09T02:47:01.060Z,9.73
2023-01-09T02:49:28.071Z,8.27
2023-01-09T02:52:22.008Z,8.48
2023-01-09T02:55:30.987Z,11.50
2023-01-09T02:58:11.876Z,9.48
2023-01-09T03:00:48.688Z,10.25
2023-01-09T03:03:39.801Z,8.90
2023-01-09T03:06:35.962Z,10.80
2023-01-09T03:09:12.028Z,9.27
2023-01-09T03:11:50.309Z,9.88
2023-01-09T03:14:20.474Z,9.80
2023-01-09T03:16:52.011Z,10.32
2023-01-09T03:19:23.088Z,11.85
2023-01-09T03:21:50.981Z,8.40
2023-01-09T03:24:17.765Z,9.80
2023-01-09T03:26:44.561Z,11.60
2023-01-09T03:29:11.252Z,10.30
2023-01-09T03:31:38.088Z,11.13
2023-01-09T03:34:04.910Z,10.20
2023-01-09T03:36:31.615Z,10.65
2023-01-09T03:38:58.281Z,13.25
2023-01-09T03:41:25.013Z,10.10
2023-01-09T03:43:51.623Z,10.93
2023-01-09T03:46:18.460Z,11.88
2023-01-09T03:48:45.411Z,13.57
2023-01-09T03:51:12.294Z,10.68
2023-01-09T03:53:39.087Z,9.68
2023-01-09T03:56:06.016Z,12.43
2023-01-09T03:58:32.709Z,9.38
2023-01-09T04:01:01.326Z,12.48
2023-01-09T04:03:28.385Z,10.82
2023-01-09T04:05:55.423Z,11.65
2023-01-09T04:08:22.339Z,9.90
2023-01-09T04:10:50.569Z,11.10
2023-01-09T04:13:17.535Z,11.50
2023-01-09T04:15:44.521Z,11.80
2023-01-09T04:18:11.197Z,8.82
2023-01-09T04:20:37.929Z,12.60
2023-01-09T04:23:04.767Z,11.60
2023-01-09T04:25:31.528Z,10.50
2023-01-09T04:27:58.340Z,10.48
2023-01-09T04:30:25.388Z,10.18
2023-01-09T04:32:52.436Z,9.32
2023-01-09T04:35:19.996Z,9.60
2023-01-09T04:37:47.027Z,10.85
2023-01-09T04:40:14.264Z,12.30
2023-01-09T04:42:41.352Z,8.90
2023-01-09T04:45:10.115Z,11.15
2023-01-09T04:47:36.894Z,10.50
2023-01-09T04:50:04.481Z,11.32
2023-01-09T04:52:31.210Z,9.05
2023-01-09T04:54:57.970Z,14.10
2023-01-09T04:57:24.600Z,11.13
2023-01-09T04:59:52.253Z,11.73
2023-01-09T05:02:19.657Z,10.00
2023-01-09T05:04:46.491Z,12.07
2023-01-09T05:07:13.170Z,10.00
2023-01-09T05:09:39.849Z,9.98
2023-01-09T05:12:06.918Z,9.07
2023-01-09T05:14:33.637Z,9.50
2023-01-09T05:17:00.292Z,12.13
2023-01-09T05:19:26.981Z,10.60
2023-01-09T05:21:53.688Z,11.50
2023-01-09T05:24:20.596Z,9.95
2023-01-09T05:26:47.319Z,11.15
2023-01-09T05:29:14.041Z,12.32
2023-01-09T05:31:40.821Z,10.18
2023-01-09T05:34:07.764Z,10.93
2023-01-09T05:36:34.422Z,9.82
2023-01-09T05:39:02.697Z,11.95
2023-01-09T05:41:29.592Z,10.88
2023-01-09T05:43:56.297Z,14.90
2023-01-09T05:46:23.132Z,12.38
2023-01-09T05:48:49.833Z,10.70
2023-01-09T05:51:16.572Z,12.60
2023-01-09T05:53:43.229Z,12.52
2023-01-09T05:56:11.713Z,11.73
2023-01-09T05:58:38.824Z,12.55
2023-01-09T06:01:05.992Z,15.02
2023-01-09T06:03:32.888Z,11.95
2023-01-09T06:05:59.627Z,14.63
2023-01-09T06:08:26.387Z,12.25
2023-01-09T06:10:53.082Z,11.75
2023-01-09T06:13:19.864Z,12.13
2023-01-09T06:15:48.032Z,12.32
2023-01-09T06:18:14.922Z,14.48
2023-01-09T06:20:41.611Z,12.48
2023-01-09T06:23:08.214Z,11.98
2023-01-09T06:25:34.977Z,14.07
2023-01-09T06:28:01.876Z,10.07
2023-01-09T06:30:28.531Z,13.82
2023-01-09T06:32:55.276Z,11.07
2023-01-09T06:35:22.404Z,13.73
2023-01-09T06:37:49.845Z,13.32
2023-01-09T06:40:17.760Z,13.45
2023-01-09T06:42:45.733Z,11.57
2023-01-09T06:45:15.676Z,12.00
2023-01-09T06:47:42.549Z,13.48
2023-01-09T06:50:10.871Z,14.15
2023-01-09T06:52:38.100Z,14.82
2023-01-09T06:55:05.438Z,14.07
2023-01-09T06:57:32.168Z,13.02
2023-01-09T06:59:58.874Z,13.32
2023-01-09T07:02:25.644Z,13.45
2023-01-09T07:04:52.286Z,14.25
2023-01-09T07:07:19.826Z,15.07
2023-01-09T07:09:46.579Z,14.18
2023-01-09T07:12:14.801Z,14.70
2023-01-09T07:14:41.914Z,17.00
2023-01-09T07:17:11.823Z,12.38
2023-01-09T07:19:38.597Z,15.80
2023-01-09T07:22:05.341Z,14.60
2023-01-09T07:24:32.130Z,15.95
2023-01-09T07:26:58.900Z,14.38
2023-01-09T07:29:25.827Z,19.10
2023-01-09T07:31:52.485Z,15.65
2023-01-09T07:34:19.600Z,15.23
2023-01-09T07:36:46.711Z,15.68
2023-01-09T07:39:13.845Z,20.42
2023-01-09T07:41:40.705Z,17.13
2023-01-09T07:44:09.548Z,17.25
2023-01-09T07:46:37.717Z,17.00
2023-01-09T07:49:04.872Z,19.55
2023-01-09T07:51:31.533Z,16.65
2023-01-09T07:53:58.321Z,18.42
2023-01-09T07:56:25.056Z,17.00
2023-01-09T07:58:51.905Z,17.98
2023-01-09T08:01:18.765Z,19.75
2023-01-09T08:03:45.500Z,18.17
2023-01-09T08:06:12.317Z,18.50
2023-01-09T08:08:38.979Z,19.25
2023-01-09T08:11:05.799Z,18.90
2023-01-09T08:13:33.345Z,17.85
2023-01-09T08:16:00.195Z,17.75
2023-01-09T08:18:27.014Z,18.80
2023-01-09T08:20:53.666Z,18.33
2023-01-09T08:23:20.543Z,19.23
2023-01-09T08:25:47.250Z,18.98
2023-01-09T08:28:14.023Z,19.10
2023-01-09T08:30:40.942Z,18.98
2023-01-09T08:33:07.918Z,20.42
2023-01-09T08:35:35.335Z,18.83
2023-01-09T08:38:02.153Z,20.17
2023-01-09T08:40:28.783Z,17.58
2023-01-09T08:43:14.387Z,18.55
2023-01-09T08:45:59.471Z,18.52
2023-01-09T08:48:26.256Z,21.67
2023-01-09T08:50:54.261Z,18.67
2023-01-09T08:53:21.133Z,19.65
2023-01-09T08:55:48.052Z,20.58
2023-01-09T08:58:14.993Z,18.95
2023-01-09T09:00:41.910Z,17.15
2023-01-09T09:03:10.463Z,16.77
2023-01-09T09:05:37.333Z,17.90
2023-01-09T09:08:04.177Z,17.85
2023-01-09T09:10:31.130Z,17.08
2023-01-09T09:12:59.287Z,15.73
2023-01-09T09:15:28.105Z,16.13
2023-01-09T09:17:57.608Z,14.43
2023-01-09T09:20:28.138Z,13.13
2023-01-09T09:22:55.067Z,14.38
2023-01-09T09:25:22.805Z,14.20
2023-01-09T09:27:50.076Z,12.48
2023-01-09T09:30:18.764Z,13.23
2023-01-09T09:32:46.379Z,12.07
2023-01-09T09:35:13.344Z,14.10
2023-01-09T09:37:40.188Z,12.35
2023-01-09T09:40:18.461Z,13.10
2023-01-09T09:43:34.822Z,11.90
2023-01-09T09:48:39.110Z,11.43
2023-01-09T09:51:23.875Z,14.57
2023-01-09T09:54:09.155Z,12.43
2023-01-09T09:56:41.804Z,14.18
2023-01-09T09:59:18.700Z,13.45
2023-01-09T10:01:53.924Z,15.02
2023-01-09T10:04:24.158Z,14.38
2023-01-09T10:06:56.334Z,13.23
2023-01-09T10:09:46.571Z,12.43
2023-01-09T10:12:13.303Z,13.70
2023-01-09T10:14:40.028Z,11.65
2023-01-09T10:17:25.135Z,11.00
2023-01-09T10:20:10.578Z,10.98
2023-01-09T10:22:49.668Z,11.90
2023-01-09T10:25:24.299Z,12.25
2023-01-09T10:28:01.555Z,11.18
2023-01-09T10:30:49.479Z,10.10
2023-01-09T10:33:34.408Z,10.73
2023-01-09T10:36:23.287Z,9.88
2023-01-09T10:38:54.415Z,9.90
2023-01-09T10:42:00.263Z,9.25
2023-01-09T10:44:38.476Z,9.73
2023-01-09T10:49:45.010Z,10.02
2023-01-09T10:52:20.450Z,12.90
2023-01-09T10:55:02.836Z,9.35
2023-01-09T10:57:41.574Z,9.52
2023-01-09T11:00:23.363Z,7.32
2023-01-09T11:02:52.170Z,8.45
2023-01-09T11:05:32.659Z,7.63
2023-01-09T11:08:04.396Z,7.28
2023-01-09T11:10:50.805Z,7.05
2023-01-09T11:13:29.699Z,7.05
2023-01-09T11:16:06.372Z,4.93
2023-01-09T11:18:51.254Z,5.15
2023-01-09T11:21:39.432Z,5.35
2023-01-09T11:24:21.597Z,4.75
2023-01-09T11:26:51.139Z,5.00
2023-01-09T11:29:26.997Z,4.75
2023-01-09T11:31:56.111Z,5.40
2023-01-09T11:34:26.486Z,5.18
2023-01-09T11:36:54.926Z,4.20
2023-01-09T11:39:27.283Z,3.60
2023-01-09T11:42:00.017Z,3.88
2023-01-09T11:44:28.691Z,4.07
2023-01-09T11:46:55.726Z,3.83
2023-01-09T11:49:28.162Z,4.03
2023-01-09T11:52:13.788Z,5.03
2023-01-09T11:54:45.935Z,4.00
2023-01-09T11:57:12.705Z,4.00
2023-01-09T11:59:39.487Z,3.63
2023-01-09T12:02:32.339Z,3.38
2023-01-09T12:05:02.240Z,3.38
2023-01-09T12:07:48.637Z,2.97
2023-01-09T12:10:34.552Z,3.20
2023-01-09T12:13:01.357Z,3.15
2023-01-09T12:15:58.718Z,2.33
2023-01-09T12:18:38.601Z,2.17
2023-01-09T12:21:20.418Z,2.60
2023-01-09T12:24:02.260Z,2.13
2023-01-09T12:26:38.848Z,3.08
2023-01-09T12:29:29.383Z,1.50
2023-01-09T12:32:13.884Z,3.70
2023-01-09T12:34:40.499Z,3.55
2023-01-09T12:37:45.169Z,4.38
2023-01-09T12:40:39.229Z,5.18
2023-01-09T12:43:20.333Z,5.18
2023-01-09T12:46:02.791Z,5.50
2023-01-09T12:48:38.822Z,6.38
2023-01-09T12:51:30.620Z,5.72
2023-01-09T12:54:10.244Z,4.90
2023-01-09T12:56:51.085Z,4.85
2023-01-09T12:59:37.340Z,6.60
2023-01-09T13:02:13.250Z,3.60
2023-01-09T13:04:54.453Z,3.55
2023-01-09T13:07:39.119Z,5.40
2023-01-09T13:10:14.855Z,7.53
2023-01-09T13:12:43.906Z,5.07
2023-01-09T13:15:22.781Z,7.13
2023-01-09T13:17:54.710Z,6.15
2023-01-09T13:20:28.688Z,6.78
2023-01-09T13:22:55.973Z,6.47
2023-01-09T13:25:41.659Z,7.07
2023-01-09T13:28:37.251Z,10.43
2023-01-09T13:31:42.426Z,9.00
2023-01-09T13:34:24.990Z,9.15
2023-01-09T13:36:54.732Z,6.10
2023-01-09T13:39:25.764Z,5.78
2023-01-09T13:42:22.800Z,6.55
2023-01-09T13:44:53.536Z,8.10
2023-01-09T13:47:28.588Z,11.95
2023-01-09T13:50:01.920Z,9.13
2023-01-09T13:52:37.003Z,8.88
2023-01-09T13:55:15.983Z,7.88
2023-01-09T13:58:02.739Z,6.53
2023-01-09T14:00:29.473Z,8.07
2023-01-09T14:02:57.703Z,8.07
2023-01-09T14:05:24.418Z,11.23
2023-01-09T14:08:09.817Z,8.50
2023-01-09T14:10:47.660Z,8.90
2023-01-09T14:13:21.955Z,13.88
2023-01-09T14:15:50.841Z,7.10
2023-01-09T14:18:30.278Z,11.60
2023-01-09T14:21:04.575Z,7.32
2023-01-09T14:23:56.517Z,8.02
2023-01-09T14:26:42.327Z,8.90
2023-01-09T14:29:31.023Z,9.88
2023-01-09T14:32:22.555Z,12.80
2023-01-09T14:34:56.019Z,9.20
2023-01-09T14:37:24.218Z,11.40
2023-01-09T14:39:51.554Z,10.88
2023-01-09T14:42:31.011Z,8.80
2023-01-09T14:45:13.823Z,7.95
2023-01-09T14:47:45.746Z,7.85
2023-01-09T14:50:23.480Z,9.13
2023-01-09T14:53:12.800Z,6.75
2023-01-09T14:55:57.696Z,10.57
2023-01-09T14:58:27.237Z,10.95
2023-01-09T15:00:59.812Z,8.30
2023-01-09T15:03:32.376Z,6.20
2023-01-09T15:06:00.597Z,8.40
2023-01-09T15:08:28.550Z,8.68
2023-01-09T15:10:57.894Z,9.63
2023-01-09T15:13:29.845Z,8.43
2023-01-09T15:18:30.377Z,11.95
2023-01-09T15:21:02.029Z,8.57
2023-01-09T15:23:31.599Z,12.95
2023-01-09T15:26:13.719Z,9.43
2023-01-09T15:28:43.767Z,11.15
2023-01-09T15:31:16.116Z,10.35
2023-01-09T15:33:44.970Z,11.27
2023-01-09T15:36:22.157Z,6.40
2023-01-09T15:38:50.780Z,10.70
2023-01-09T15:41:43.335Z,8.35
2023-01-09T15:44:18.530Z,6.55
2023-01-09T15:46:46.665Z,4.93
2023-01-09T15:49:14.396Z,10.00
2023-01-09T15:51:46.851Z,5.55
2023-01-09T15:54:23.493Z,10.02
2023-01-09T15:56:50.402Z,7.28
2023-01-09T15:59:28.636Z,7.60
2023-01-09T16:04:44.131Z,6.22
2023-01-09T16:07:16.222Z,8.32
2023-01-09T16:09:47.931Z,7.00
2023-01-09T16:12:20.390Z,8.07
2023-01-09T16:14:58.572Z,6.90
2023-01-09T16:17:26.826Z,9.60
2023-01-09T16:20:15.264Z,4.68
2023-01-09T16:22:54.137Z,7.22
2023-01-09T16:25:34.218Z,5.88
2023-01-09T16:28:21.882Z,8.10
2023-01-09T16:31:03.640Z,9.93
2023-01-09T16:33:31.607Z,6.55
2023-01-09T16:35:59.130Z,6.20
2023-01-09T16:38:27.277Z,5.15
2023-01-09T16:41:23.911Z,10.02
2023-01-09T16:43:51.594Z,3.72
2023-01-09T16:46:21.362Z,6.07
2023-01-09T16:48:48.569Z,5.00
2023-01-09T16:51:17.836Z,5.32
2023-01-09T16:53:45.203Z,6.57
2023-01-09T16:56:19.874Z,5.68
2023-01-09T16:58:46.854Z,4.65
2023-01-09T17:01:14.859Z,8.60
2023-01-09T17:03:44.158Z,6.63
2023-01-09T17:06:28.114Z,6.75
2023-01-09T17:08:55.443Z,6.90
2023-01-09T17:11:24.610Z,7.75
2023-01-09T17:13:51.477Z,9.27
2023-01-09T17:16:19.485Z,10.20
2023-01-09T17:18:46.721Z,8.75
2023-01-09T17:21:26.459Z,11.70
2023-01-09T17:24:13.217Z,11.82
2023-01-09T17:27:01.259Z,10.07
2023-01-09T17:29:29.002Z,25.05
2023-01-09T17:31:57.172Z,7.68
2023-01-09T17:34:23.996Z,11.00
2023-01-09T17:36:50.930Z,10.82
2023-01-09T17:39:17.855Z,12.70
2023-01-09T17:41:44.691Z,13.25
2023-01-09T17:44:12.763Z,12.80
2023-01-09T17:46:42.057Z,13.68
2023-01-09T17:49:17.391Z,13.35
2023-01-09T17:51:44.527Z,9.30
2023-01-09T17:54:11.380Z,14.75
2023-01-09T17:56:40.270Z,10.90
2023-01-09T17:59:09.749Z,13.38
2023-01-09T18:01:36.732Z,11.73
2023-01-09T18:04:03.551Z,10.18
2023-01-09T18:06:30.370Z,9.57
2023-01-09T18:08:58.364Z,11.13
2023-01-09T18:11:25.510Z,9.75
2023-01-09T18:13:56.368Z,10.40
2023-01-09T18:16:25.573Z,13.73
2023-01-09T18:18:54.160Z,9.00
2023-01-09T18:21:23.380Z,9.80
2023-01-09T18:23:50.284Z,11.75
2023-01-09T18:26:21.150Z,10.38
2023-01-09T18:28:55.183Z,13.00
2023-01-09T18:31:23.809Z,11.55
2023-01-09T18:33:52.332Z,8.85
2023-01-09T18:36:21.582Z,7.88
2023-01-09T18:38:53.255Z,9.75
2023-01-09T18:41:20.644Z,11.18
2023-01-09T18:43:52.152Z,12.50
2023-01-09T18:46:23.956Z,12.38
2023-01-09T18:51:23.049Z,12.35
2023-01-09T18:53:50.475Z,13.55
2023-01-09T18:56:19.407Z,13.48
2023-01-09T18:58:49.693Z,14.02
2023-01-09T19:01:16.943Z,12.05
2023-01-09T19:03:45.176Z,11.25
2023-01-09T19:06:12.888Z,11.43
2023-01-09T19:08:39.564Z,12.73
2023-01-09T19:11:06.576Z,12.82
2023-01-09T19:13:35.771Z,10.38
2023-01-09T19:16:03.368Z,9.02
2023-01-09T19:18:34.165Z,11.20
2023-01-09T19:21:01.035Z,11.82
2023-01-09T19:23:28.069Z,9.00
2023-01-09T19:25:55.310Z,11.73
2023-01-09T19:28:22.064Z,10.38
2023-01-09T19:30:56.339Z,10.60
2023-01-09T19:33:25.160Z,11.00
2023-01-09T19:35:53.121Z,11.05
2023-01-09T19:38:22.571Z,11.15
2023-01-09T19:40:49.477Z,11.65
2023-01-09T19:43:25.880Z,10.00
2023-01-09T19:45:56.462Z,10.90
2023-01-09T19:48:24.501Z,13.00
2023-01-09T19:50:51.368Z,11.82
2023-01-09T19:53:18.416Z,12.50
2023-01-09T19:55:45.110Z,13.23
2023-01-09T19:58:11.935Z,10.07
2023-01-09T20:00:39.280Z,10.73
2023-01-09T20:03:06.084Z,12.18
2023-01-09T20:05:33.100Z,10.63
2023-01-09T20:07:59.924Z,10.48
2023-01-09T20:10:26.600Z,14.48
2023-01-09T20:12:53.515Z,11.07
2023-01-09T20:15:20.261Z,12.80
2023-01-09T20:17:47.170Z,12.85
2023-01-09T20:20:13.987Z,12.60
2023-01-09T20:22:40.661Z,13.95
2023-01-09T20:25:10.231Z,11.95
2023-01-09T20:27:37.239Z,16.40
2023-01-09T20:30:04.423Z,14.60
2023-01-09T20:32:32.392Z,13.73
2023-01-09T20:34:59.260Z,14.40
2023-01-09T20:37:26.189Z,12.48
2023-01-09T20:39:53.246Z,13.57
2023-01-09T20:42:20.053Z,17.50
2023-01-09T20:44:46.997Z,14.23
2023-01-09T20:47:13.896Z,12.80
2023-01-09T20:49:40.618Z,16.67
2023-01-09T20:52:07.791Z,15.77
2023-01-09T20:54:35.951Z,15.15
2023-01-09T20:57:02.701Z,16.00
2023-01-09T20:59:29.543Z,15.68
2023-01-09T21:01:56.415Z,13.85
2023-01-09T21:04:23.210Z,10.93
2023-01-09T21:06:50.534Z,12.27
2023-01-09T21:09:17.740Z,14.48
2023-01-09T21:11:44.650Z,10.63
2023-01-09T21:14:11.503Z,19.80
2023-01-09T21:16:38.326Z,13.95
2023-01-09T21:19:05.105Z,15.02
2023-01-09T21:21:31.928Z,16.52
2023-01-09T21:24:00.630Z,15.98
2023-01-09T21:26:30.394Z,16.58
2023-01-09T21:28:59.863Z,15.32
2023-01-09T21:31:34.179Z,18.27
2023-01-09T21:34:04.379Z,15.70
2023-01-09T21:36:31.720Z,16.00
2023-01-09T21:38:59.479Z,16.55
2023-01-09T21:41:44.795Z,14.88
2023-01-09T21:44:31.376Z,14.70
2023-01-09T21:47:00.244Z,17.67
2023-01-09T21:49:31.196Z,15.13
2023-01-09T21:51:58.537Z,15.90
2023-01-09T21:54:25.311Z,17.00
2023-01-09T21:56:52.915Z,19.33
2023-01-09T21:59:20.042Z,20.95
2023-01-09T22:01:49.405Z,19.75
2023-01-09T22:04:18.267Z,17.92
2023-01-09T22:06:45.676Z,18.55
2023-01-09T22:09:13.461Z,17.88
2023-01-09T22:11:41.220Z,17.65
2023-01-09T22:14:14.614Z,20.38
2023-01-09T22:16:42.269Z,18.52
2023-01-09T22:19:09.828Z,15.98
2023-01-09T22:21:36.710Z,15.98
2023-01-09T22:24:05.122Z,19.83
2023-01-09T22:26:33.813Z,16.77
2023-01-09T22:29:00.900Z,16.65
2023-01-09T22:31:33.128Z,15.07
2023-01-09T22:34:01.187Z,17.73
2023-01-09T22:36:29.677Z,15.43
2023-01-09T22:38:58.120Z,16.13
2023-01-09T22:41:27.060Z,16.25
2023-01-09T22:43:53.764Z,16.95
2023-01-09T22:46:20.784Z,14.65
2023-01-09T22:48:47.652Z,14.70
2023-01-09T22:51:17.428Z,14.35
2023-01-09T22:53:45.366Z,15.32
2023-01-09T22:56:15.520Z,14.95
2023-01-09T22:58:43.004Z,16.00
2023-01-09T23:01:11.751Z,14.93
2023-01-09T23:03:39.348Z,12.07
2023-01-09T23:06:18.133Z,13.25
2023-01-09T23:08:46.086Z,13.82
2023-01-09T23:11:42.582Z,13.02
2023-01-09T23:14:10.288Z,12.13
2023-01-09T23:16:37.528Z,12.50
2023-01-09T23:19:09.948Z,12.27
2023-01-09T23:21:36.920Z,11.35
2023-01-09T23:24:03.988Z,14.38
2023-01-09T23:26:30.671Z,16.02
2023-01-09T23:28:57.431Z,15.15
2023-01-09T23:31:24.108Z,17.67
2023-01-09T23:33:50.859Z,17.45
2023-01-09T23:36:17.576Z,19.10
2023-01-09T23:38:45.043Z,20.17
2023-01-09T23:41:11.875Z,20.10
2023-01-09T23:43:38.559Z,21.00
2023-01-09T23:46:05.409Z,19.65
2023-01-09T23:48:32.171Z,21.15
2023-01-09T23:50:58.902Z,26.92
2023-01-09T23:53:25.676Z,23.50
2023-01-09T23:55:56.732Z,23.23
2023-01-09T23:58:26.163Z,24.10
